Airfield :
LOGIN :

Register | Disclaimer

   EN    FR    IT 

 










Legend :    VFR   Marginal VFR   IFR   Intensive IFR   Very Intensive IFR
Visi :
Ceiling :
>= 8 km
>= 3000ft
5 to 8 km
1000 to 3000 ft
1500m to 5 km
500 to 1000 ft
800 to 1500m
200 to 500 ft
< 800m
< 200 ft
Symbols :   Thunderstorms  Fog  Heavy snow  Heavy precipitations  Wind > 20 kt
SIGMETs :     Misc.  Thunderstorms  Icing  Turbulence  Mountain Waves  Volcanic Ashes






- Airport Elevation : 0 ft


ETEB - Ansbach Army Heliport

CURRENT METAR :
  • 102256Z AUTO 15006KT 9999 CLR M02/M02 A3018 RMK AO2 SLP260 T10211021 400401021 FZRANO $

EXPIRED METARs :
  • 102156Z AUTO 14006KT 9999 CLR M02/M02 A3020 RMK AO2 SLP267 T10181018 FZRANO $
  • 102056Z AUTO 15005KT 9999 CLR M02/M02 A3021 RMK AO2 SLP271 T10201020 57013 FZRANO $

TAF TAF ETEB
Valid from the 10 at 14:00 until the 11 at 20:00 UTC


101402Z 1014/1120 24009KT 9999 FEW040 QNH3028INS
BECMG 1019/1020 17006KT 9999 SCT030 QNH3020INS
BECMG 1102/1103 17009KT 9999 BKN050 QNH3004INS
BECMG 1115/1116 19006KT 8000 -RASN BKN010 620108 QNH2980INS TX04/1014Z TNM02/1104Z



MET'MAP, your aeronautical weather chart ! - Copyright ORBIFLY December 2007 - Disclaimer

ORBIFLY MET'MAP TEAM :

Programming & Development : Alexandra Zaïnal
Concept & original design : Baudouin d'Aumeries
Assistance for programming : Marc-Olivier Méhu
Technical & hardware support : Manuel Goepfert

Contact : metmap@orbifly.com




SOURCES & CREDITS :

   NOAA